Time;durP1;ratioP1;P1;durP2;ratioP2;P2;SDS_P1;SDS_P2;PMS_P1;PMS_P2;Temp;Humidity;BMP_temperature;BMP_pressure;BME280_temperature;BME280_humidity;BME280_pressure;Samples;Min_cycle;Max_cycle;Signal;HPM_P1;HPM_P2
2022/09/09 00:01:34;;;;;;;14.98;6.63;;;;;;;13.95;100.00;100473.31;5025877;28;19919;-81
2022/09/09 00:04:29;;;;;;;19.73;6.50;;;;;;;13.89;100.00;100462.91;5031159;28;20029;-80
2022/09/09 00:07:09;;;;;;;21.70;7.75;;;;;;;14.02;100.00;100459.81;5033773;28;20036;-81
2022/09/09 00:10:08;;;;;;;24.48;7.00;;;;;;;13.99;100.00;100454.63;5036555;28;20049;-81
2022/09/09 00:13:11;;;;;;;18.00;7.22;;;;;;;13.90;100.00;100461.88;5034448;28;20497;-81
2022/09/09 00:15:56;;;;;;;14.70;6.97;;;;;;;13.83;100.00;100448.91;5029964;28;20061;-81
2022/09/09 00:18:48;;;;;;;15.48;6.97;;;;;;;13.90;100.00;100444.50;5027528;28;20439;-81
2022/09/09 00:21:24;;;;;;;13.90;6.95;;;;;;;13.87;100.00;100448.47;5049334;28;20025;-81
2022/09/09 00:23:56;;;;;;;17.30;6.40;;;;;;;13.92;100.00;100439.72;5026780;28;20436;-81
2022/09/09 00:26:32;;;;;;;19.52;6.97;;;;;;;13.89;100.00;100440.06;5033888;28;20085;-81
2022/09/09 00:29:29;;;;;;;20.17;7.13;;;;;;;13.88;100.00;100439.16;5030238;28;20069;-81
2022/09/09 00:32:03;;;;;;;18.70;6.85;;;;;;;13.81;100.00;100438.06;5049467;28;20096;-81
2022/09/09 00:34:29;;;;;;;16.08;6.43;;;;;;;13.84;100.00;100434.13;5029695;28;20482;-81
2022/09/09 00:36:57;;;;;;;15.70;7.88;;;;;;;13.92;100.00;100437.84;5018407;28;20025;-81
2022/09/09 00:39:37;;;;;;;15.48;7.25;;;;;;;13.89;100.00;100445.56;5031034;28;20049;-81
2022/09/09 00:42:24;;;;;;;22.42;8.23;;;;;;;13.84;100.00;100442.38;5030042;28;20509;-81
2022/09/09 00:45:01;;;;;;;18.50;6.47;;;;;;;13.84;100.00;100442.38;5026061;28;20500;-81
2022/09/09 00:47:51;;;;;;;19.95;7.88;;;;;;;13.79;100.00;100442.84;5027707;28;20036;-80
2022/09/09 00:50:56;;;;;;;32.22;7.82;;;;;;;13.80;100.00;100436.31;5021751;28;20033;-81
2022/09/09 00:53:26;;;;;;;17.88;8.50;;;;;;;13.77;100.00;100443.00;5021910;28;20103;-80
2022/09/09 00:56:21;;;;;;;20.10;8.15;;;;;;;13.77;100.00;100437.50;5026725;28;20057;-82
2022/09/09 00:59:06;;;;;;;16.17;8.10;;;;;;;13.78;100.00;100430.09;5029729;28;20029;-79
2022/09/09 01:01:35;;;;;;;20.25;8.25;;;;;;;13.83;100.00;100437.91;5048385;28;20033;-80
2022/09/09 01:04:09;;;;;;;28.20;8.68;;;;;;;13.78;100.00;100425.44;5030645;28;20485;-79
2022/09/09 01:06:38;;;;;;;;;;;;;;;13.73;100.00;100433.31;5031338;28;20030;-82
2022/09/09 01:09:25;;;;;;;16.48;8.20;;;;;;;13.70;100.00;100427.25;5044378;28;19924;-82
2022/09/09 01:12:00;;;;;;;16.80;7.93;;;;;;;13.73;100.00;100438.81;5025916;28;20025;-82
2022/09/09 01:14:39;;;;;;;26.15;8.10;;;;;;;13.73;100.00;100436.06;5022738;28;20034;-81
2022/09/09 01:17:23;;;;;;;21.43;8.00;;;;;;;13.72;100.00;100428.81;5028716;28;20125;-82
2022/09/09 01:19:56;;;;;;;21.50;7.78;;;;;;;13.69;100.00;100436.50;5025811;28;20409;-82
2022/09/09 01:22:37;;;;;;;17.75;7.72;;;;;;;13.73;100.00;100437.94;5024173;28;20113;-81
2022/09/09 01:25:27;;;;;;;18.85;7.88;;;;;;;13.74;100.00;100436.91;5021145;28;20030;-79
2022/09/09 01:28:01;;;;;;;26.65;8.15;;;;;;;13.72;100.00;100426.06;5026577;28;20061;-82
2022/09/09 01:30:28;;;;;;;26.63;8.25;;;;;;;13.72;100.00;100434.31;5024815;28;20030;-80
2022/09/09 01:33:00;;;;;;;24.45;8.35;;;;;;;13.75;100.00;100428.50;5019350;28;20038;-78
2022/09/09 01:35:36;;;;;;;22.30;7.78;;;;;;;13.78;100.00;100425.44;5029663;28;20030;-81
2022/09/09 01:38:10;;;;;;;19.65;8.25;;;;;;;13.76;100.00;100421.13;5029402;28;20554;-82
2022/09/09 01:40:41;;;;;;;25.35;8.23;;;;;;;13.66;100.00;100418.44;5031880;28;20022;-80
2022/09/09 01:43:13;;;;;;;22.95;8.52;;;;;;;13.67;100.00;100431.16;5011931;28;20482;-79
2022/09/09 01:45:39;;;;;;;26.20;9.15;;;;;;;13.67;100.00;100428.41;5029335;28;20581;-79
2022/09/09 01:48:06;;;;;;;24.50;8.13;;;;;;;13.68;100.00;100418.28;5027829;28;20037;-80
2022/09/09 01:50:34;;;;;;;22.48;8.25;;;;;;;13.79;100.00;100418.94;5023616;28;20034;-80
2022/09/09 01:53:02;;;;;;;31.17;8.48;;;;;;;13.73;100.00;100416.78;5022036;28;20048;-80
2022/09/09 01:56:12;;;;;;;22.58;9.70;;;;;;;13.71;100.00;100416.09;5032860;28;20119;-80
2022/09/09 01:59:09;;;;;;;23.08;9.02;;;;;;;13.70;100.00;100421.75;5017088;28;20041;-80
2022/09/09 02:01:54;;;;;;;24.20;9.15;;;;;;;13.69;100.00;100425.50;5027044;28;20037;-80
2022/09/09 02:04:35;;;;;;;30.08;9.00;;;;;;;13.72;100.00;100422.44;5026745;28;20036;-80
2022/09/09 02:07:01;;;;;;;28.42;8.60;;;;;;;13.71;100.00;100429.00;5005581;28;20057;-80
2022/09/09 02:09:30;;;;;;;53.45;11.27;;;;;;;13.64;100.00;100408.59;5009539;28;20045;-82
2022/09/09 02:12:06;;;;;;;33.47;8.73;;;;;;;13.71;100.00;100415.22;5024642;28;20041;-80
2022/09/09 02:14:39;;;;;;;28.13;9.18;;;;;;;13.76;100.00;100411.00;5026086;28;20025;-81
2022/09/09 02:17:09;;;;;;;;;;;;;;;13.77;100.00;100406.34;5010558;28;20038;-81
2022/09/09 02:19:39;;;;;;;25.98;8.25;;;;;;;13.78;100.00;100403.44;5024267;28;19913;-80
2022/09/09 02:22:07;;;;;;;;;;;;;;;13.79;100.00;100396.06;5012295;28;20040;-80
2022/09/09 02:24:38;;;;;;;37.30;8.80;;;;;;;13.78;100.00;100402.59;4988806;28;19917;-80
2022/09/09 02:27:13;;;;;;;40.08;10.30;;;;;;;13.83;100.00;100396.63;5041767;28;20060;-80
2022/09/09 02:29:44;;;;;;;27.08;9.32;;;;;;;13.75;100.00;100389.97;5003118;28;20033;-81
2022/09/09 02:32:19;;;;;;;33.13;9.60;;;;;;;13.77;100.00;100390.72;5026186;28;20058;-81
2022/09/09 02:35:07;;;;;;;61.40;12.18;;;;;;;13.71;100.00;100391.31;5021889;28;20077;-81
2022/09/09 02:37:38;;;;;;;32.13;8.82;;;;;;;13.76;100.00;100397.22;5029617;28;20473;-81
2022/09/09 02:40:07;;;;;;;29.13;9.10;;;;;;;13.78;100.00;100395.19;5035664;28;20033;-80
2022/09/09 02:42:43;;;;;;;33.72;10.57;;;;;;;13.70;100.00;100395.09;5038777;28;20065;-81
2022/09/09 02:45:25;;;;;;;29.95;10.27;;;;;;;13.68;100.00;100388.88;5017955;28;20030;-81
2022/09/09 02:48:16;;;;;;;26.45;9.95;;;;;;;13.71;100.00;100393.22;5041276;28;20036;-80
2022/09/09 02:50:47;;;;;;;31.90;10.20;;;;;;;13.65;100.00;100391.06;5030401;28;20034;-80
2022/09/09 02:53:20;;;;;;;39.08;10.07;;;;;;;13.66;100.00;100399.19;5032064;28;20060;-80
2022/09/09 02:55:58;;;;;;;28.40;10.03;;;;;;;13.71;100.00;100396.84;5030760;28;20090;-81
2022/09/09 02:58:24;;;;;;;37.17;10.35;;;;;;;13.63;100.00;100399.47;5022540;28;20025;-79
2022/09/09 03:00:52;;;;;;;36.58;11.40;;;;;;;13.59;100.00;100398.94;5045887;28;20038;-80
2022/09/09 03:03:27;;;;;;;34.50;10.25;;;;;;;13.69;100.00;100396.13;5022036;28;20029;-81
2022/09/09 03:05:56;;;;;;;38.97;9.73;;;;;;;13.69;100.00;100396.13;5020167;28;20083;-81
2022/09/09 03:08:22;;;;;;;40.70;9.73;;;;;;;13.61;100.00;100398.78;5026568;28;20154;-81
2022/09/09 03:10:50;;;;;;;23.27;9.98;;;;;;;13.57;100.00;100386.34;5020247;28;20493;-80
2022/09/09 03:13:22;;;;;;;45.17;11.05;;;;;;;13.64;100.00;100392.94;5037154;28;20088;-81
2022/09/09 03:15:52;;;;;;;44.25;10.40;;;;;;;13.67;100.00;100395.38;5027969;28;20079;-81
2022/09/09 03:18:21;;;;;;;44.42;10.35;;;;;;;13.71;100.00;100390.47;5011448;28;20032;-81
2022/09/09 03:20:48;;;;;;;37.55;11.73;;;;;;;13.76;100.00;100399.97;5030811;28;20065;-81
2022/09/09 03:23:14;;;;;;;46.25;10.18;;;;;;;13.75;100.00;100389.97;5023085;28;20038;-81
2022/09/09 03:25:46;;;;;;;35.25;10.48;;;;;;;13.78;100.00;100400.69;5008954;28;20346;-81
2022/09/09 03:28:12;;;;;;;37.83;9.90;;;;;;;13.85;100.00;100400.06;5031519;28;20037;-81
2022/09/09 03:30:38;;;;;;;31.75;10.18;;;;;;;13.89;100.00;100407.03;5012499;28;20125;-82
2022/09/09 03:33:03;;;;;;;32.47;10.93;;;;;;;13.91;100.00;100396.72;5026860;28;20030;-81
2022/09/09 03:35:29;;;;;;;40.00;10.48;;;;;;;13.92;100.00;100395.69;5023918;28;20034;-81
2022/09/09 03:37:55;;;;;;;39.05;10.32;;;;;;;13.95;100.00;100403.63;5016353;28;20129;-81
2022/09/09 03:40:23;;;;;;;32.78;9.63;;;;;;;13.96;100.00;100402.63;5027916;28;20061;-81
2022/09/09 03:42:50;;;;;;;34.50;9.23;;;;;;;14.03;100.00;100411.13;5013637;28;20501;-81
2022/09/09 03:45:18;;;;;;;27.48;8.85;;;;;;;14.05;100.00;100409.06;5022822;28;20498;-81
2022/09/09 03:47:46;;;;;;;41.13;10.70;;;;;;;14.05;100.00;100411.81;5003302;28;20506;-81
2022/09/09 03:50:15;;;;;;;33.55;8.45;;;;;;;14.06;100.00;100414.41;5021424;28;20038;-81
2022/09/09 03:52:42;;;;;;;37.70;9.70;;;;;;;14.12;100.00;100412.94;5025642;28;20497;-81
2022/09/09 03:55:16;;;;;;;44.45;9.52;;;;;;;14.16;100.00;100420.72;5041390;28;20123;-81
2022/09/09 03:57:42;;;;;;;45.80;9.85;;;;;;;14.21;100.00;100413.91;5022017;28;20030;-81
2022/09/09 04:00:10;;;;;;;41.22;10.38;;;;;;;14.15;100.00;100415.41;5026917;28;20030;-81
2022/09/09 04:02:40;;;;;;;49.92;10.35;;;;;;;14.23;100.00;100409.09;5041511;28;20545;-81
2022/09/09 04:05:07;;;;;;;32.17;8.85;;;;;;;14.28;100.00;100415.00;5043770;28;20041;-81
2022/09/09 04:07:38;;;;;;;30.50;7.93;;;;;;;14.24;100.00;100400.69;5039952;28;20053;-81
2022/09/09 04:10:09;;;;;;;46.85;10.20;;;;;;;14.30;100.00;100402.81;5003710;28;20029;-80
2022/09/09 04:12:36;;;;;;;30.73;8.23;;;;;;;14.33;100.00;100408.00;5024059;28;20045;-80
2022/09/09 04:15:07;;;;;;;34.05;10.30;;;;;;;14.37;100.00;100402.19;5012782;28;20378;-81
2022/09/09 04:17:33;;;;;;;46.55;8.55;;;;;;;14.35;100.00;100394.06;5001550;28;20030;-81
2022/09/09 04:20:02;;;;;;;33.00;9.18;;;;;;;14.33;100.00;100394.25;5032759;28;20048;-80
2022/09/09 04:22:28;;;;;;;38.83;9.70;;;;;;;14.31;100.00;100393.53;5010850;28;20033;-80
2022/09/09 04:24:55;;;;;;;34.13;8.43;;;;;;;14.30;100.00;100399.19;5010975;28;20397;-81
2022/09/09 04:27:20;;;;;;;26.30;9.27;;;;;;;14.22;100.00;100386.22;5028380;28;20033;-80
2022/09/09 04:29:47;;;;;;;39.20;9.23;;;;;;;14.28;100.00;100387.44;5011998;28;20038;-80
2022/09/09 04:32:13;;;;;;;48.13;8.82;;;;;;;14.33;100.00;100391.47;5047753;28;20393;-79
2022/09/09 04:34:41;;;;;;;47.28;8.52;;;;;;;14.32;100.00;100391.63;5025365;28;20065;-80
2022/09/09 04:37:14;;;;;;;33.60;8.82;;;;;;;14.47;100.00;100394.69;5031740;28;20038;-80
2022/09/09 04:39:40;;;;;;;47.88;8.05;;;;;;;14.63;100.00;100394.03;5026530;28;20440;-79
2022/09/09 04:42:06;;;;;;;36.35;8.00;;;;;;;14.55;100.00;100385.66;5020693;28;20080;-80
2022/09/09 04:44:32;;;;;;;24.77;7.75;;;;;;;14.65;100.00;100401.09;5017643;28;20022;-79
2022/09/09 04:47:01;;;;;;;25.33;7.78;;;;;;;14.58;100.00;100388.94;5021012;28;20182;-80
2022/09/09 04:49:27;;;;;;;22.60;7.35;;;;;;;14.48;100.00;100388.19;5010201;28;20362;-79
2022/09/09 04:51:55;;;;;;;31.70;7.35;;;;;;;14.55;100.00;100389.25;5026896;28;20762;-81
2022/09/09 04:54:29;;;;;;;34.65;7.53;;;;;;;14.52;100.00;100384.06;5016993;28;20052;-80
2022/09/09 04:56:57;;;;;;;40.05;7.82;;;;;;;14.51;100.00;100383.22;5013617;28;20026;-81
2022/09/09 04:59:24;;;;;;;34.97;7.20;;;;;;;14.43;100.00;100361.09;5013938;28;20125;-81
2022/09/09 05:01:51;;;;;;;38.03;7.50;;;;;;;14.46;100.00;100370.91;4995378;28;20492;-81
2022/09/09 05:04:19;;;;;;;31.02;7.18;;;;;;;14.40;100.00;100366.06;5024246;28;20037;-80
2022/09/09 05:06:48;;;;;;;45.95;8.40;;;;;;;14.43;100.00;100376.75;5028514;28;20022;-79
2022/09/09 05:09:14;;;;;;;27.40;7.35;;;;;;;14.38;100.00;100380.00;5010175;28;20041;-80
2022/09/09 05:11:39;;;;;;;37.45;7.60;;;;;;;14.35;100.00;100383.06;5015742;28;20049;-80
2022/09/09 05:14:05;;;;;;;26.63;6.70;;;;;;;14.32;100.00;100388.88;4987395;28;20107;-80
2022/09/09 05:16:32;;;;;;;34.47;7.57;;;;;;;14.30;100.00;100379.91;5025049;28;20068;-80
2022/09/09 05:18:58;;;;;;;45.97;7.50;;;;;;;14.33;100.00;100379.56;5026089;28;20040;-80
2022/09/09 05:21:28;;;;;;;25.60;7.53;;;;;;;14.35;100.00;100383.06;5022772;28;20026;-79
2022/09/09 05:23:57;;;;;;;34.80;8.02;;;;;;;14.31;100.00;100376.13;5004453;28;20799;-79
2022/09/09 05:26:29;;;;;;;38.72;7.38;;;;;;;14.34;100.00;100378.56;5018447;28;20041;-82
2022/09/09 05:28:55;;;;;;;30.55;7.05;;;;;;;14.36;100.00;100378.41;5029660;28;20433;-81
2022/09/09 05:31:21;;;;;;;51.65;8.18;;;;;;;14.38;100.00;100381.88;5013350;28;20037;-80
2022/09/09 05:33:54;;;;;;;40.67;9.38;;;;;;;14.39;100.00;100373.44;5020952;28;20088;-81
2022/09/09 05:36:23;;;;;;;29.67;7.80;;;;;;;14.38;100.00;100380.00;5037989;28;20128;-81
2022/09/09 05:38:53;;;;;;;40.47;8.35;;;;;;;14.41;100.00;100376.91;5026771;28;20065;-81
2022/09/09 05:41:19;;;;;;;42.33;7.78;;;;;;;14.37;100.00;100378.25;5026716;28;20092;-81
2022/09/09 05:43:48;;;;;;;38.00;7.50;;;;;;;14.39;100.00;100378.94;5032748;28;20421;-81
2022/09/09 05:46:19;;;;;;;31.08;7.82;;;;;;;14.37;100.00;100382.91;5027440;28;20082;-81
2022/09/09 05:48:47;;;;;;;38.60;8.07;;;;;;;14.41;100.00;100382.41;5022614;28;20025;-79
2022/09/09 05:51:17;;;;;;;37.60;7.60;;;;;;;14.48;100.00;100380.75;5023889;28;20038;-81
2022/09/09 05:53:45;;;;;;;30.92;8.05;;;;;;;14.53;100.00;100377.53;5012007;28;20040;-81
2022/09/09 05:56:17;;;;;;;35.05;8.52;;;;;;;14.57;100.00;100383.59;5019050;28;20485;-79
2022/09/09 05:58:49;;;;;;;33.90;8.02;;;;;;;14.68;100.00;100387.00;5045161;28;20021;-79
2022/09/09 06:01:21;;;;;;;30.10;7.43;;;;;;;14.68;100.00;100397.16;5031624;28;20049;-80
2022/09/09 06:03:53;;;;;;;47.88;8.13;;;;;;;14.82;100.00;100401.22;5004745;28;20393;-78
2022/09/09 06:06:22;;;;;;;37.90;8.77;;;;;;;14.86;100.00;100399.88;5013110;28;20057;-80
2022/09/09 06:08:54;;;;;;;41.58;7.18;;;;;;;14.99;100.00;100396.69;5035952;28;20124;-80
2022/09/09 06:11:26;;;;;;;34.85;8.00;;;;;;;15.14;100.00;100402.50;5019090;28;20030;-80
2022/09/09 06:13:55;;;;;;;31.23;7.03;;;;;;;15.23;100.00;100398.72;5033364;28;20034;-80
2022/09/09 06:16:23;;;;;;;39.13;8.27;;;;;;;15.11;100.00;100405.56;5012424;28;20133;-78
2022/09/09 06:18:51;;;;;;;34.15;7.38;;;;;;;15.05;100.00;100407.94;5018378;28;20101;-79
2022/09/09 06:21:23;;;;;;;34.72;7.40;;;;;;;15.28;100.00;100401.84;5007402;28;20509;-79
2022/09/09 06:23:51;;;;;;;29.58;7.53;;;;;;;15.36;100.00;100396.38;5030737;28;20469;-80
2022/09/09 06:26:20;;;;;;;39.92;6.85;;;;;;;15.51;100.00;100407.72;5012607;28;20389;-79
2022/09/09 06:28:47;;;;;;;36.05;6.40;;;;;;;15.58;100.00;100406.00;5022161;28;20036;-81
2022/09/09 06:31:21;;;;;;;59.25;8.13;;;;;;;15.65;100.00;100394.31;5018523;28;20034;-80
2022/09/09 06:33:50;;;;;;;35.25;9.13;;;;;;;15.77;100.00;100395.75;5016927;28;20041;-80
2022/09/09 06:36:19;;;;;;;30.15;7.13;;;;;;;15.89;100.00;100394.44;5023905;28;20114;-79
2022/09/09 06:38:45;;;;;;;33.80;6.20;;;;;;;15.97;100.00;100402.75;5026684;28;20034;-79
2022/09/09 06:41:18;;;;;;;31.52;6.40;;;;;;;16.25;100.00;100408.00;5030931;28;20137;-79
2022/09/09 06:43:44;;;;;;;32.28;7.10;;;;;;;16.26;100.00;100393.13;5016746;28;20053;-80
2022/09/09 06:46:11;;;;;;;33.58;6.53;;;;;;;16.22;100.00;100402.78;5015793;28;20034;-79
2022/09/09 06:48:40;;;;;;;28.90;6.53;;;;;;;16.22;100.00;100390.91;5015353;28;20129;-81
2022/09/09 06:51:13;;;;;;;22.70;4.72;;;;;;;16.32;100.00;100392.44;5015445;28;20537;-80
2022/09/09 06:53:42;;;;;;;35.10;6.43;;;;;;;16.24;100.00;100394.34;5036157;28;20022;-80
2022/09/09 06:56:16;;;;;;;26.25;7.55;;;;;;;16.32;100.00;100399.88;5019940;28;20033;-80
2022/09/09 06:58:44;;;;;;;23.25;6.32;;;;;;;16.39;100.00;100392.63;5035941;28;20067;-78
2022/09/09 07:01:15;;;;;;;30.52;6.68;;;;;;;16.34;100.00;100397.81;5020270;28;20034;-79
2022/09/09 07:03:44;;;;;;;35.60;5.82;;;;;;;16.53;100.00;100389.19;5017912;28;20065;-79
2022/09/09 07:06:23;;;;;;;30.42;5.70;;;;;;;16.40;100.00;100404.53;5027658;28;20046;-78
2022/09/09 07:08:50;;;;;;;27.33;6.07;;;;;;;16.43;100.00;100396.78;5014900;28;20037;-79
2022/09/09 07:11:17;;;;;;;27.35;6.25;;;;;;;16.72;100.00;100401.81;5019958;28;20041;-78
2022/09/09 07:13:47;;;;;;;35.70;6.82;;;;;;;16.87;100.00;100393.72;5033535;28;20037;-78
2022/09/09 07:16:15;;;;;;;36.47;7.03;;;;;;;16.91;100.00;100394.22;5010592;28;20045;-78
2022/09/09 07:18:41;;;;;;;36.47;6.38;;;;;;;17.01;100.00;100394.03;5026416;28;20037;-79
2022/09/09 07:21:11;;;;;;;35.80;6.53;;;;;;;17.01;100.00;100394.91;5048171;28;20038;-81
2022/09/09 07:23:40;;;;;;;29.15;6.03;;;;;;;16.94;100.00;100399.41;5017217;28;20532;-79
2022/09/09 07:26:17;;;;;;;34.53;5.72;;;;;;;16.95;100.00;100391.97;5028819;28;20037;-80
2022/09/09 07:28:48;;;;;;;40.28;6.20;;;;;;;16.82;100.00;100398.00;5016697;28;20026;-79
2022/09/09 07:31:20;;;;;;;37.13;6.70;;;;;;;16.94;100.00;100396.66;5032736;28;20426;-79
2022/09/09 07:33:47;;;;;;;28.17;5.50;;;;;;;17.33;100.00;100406.97;5037761;28;20033;-79
2022/09/09 07:36:18;;;;;;;19.70;4.85;;;;;;;17.34;100.00;100400.34;5017326;28;20393;-79
2022/09/09 07:38:48;;;;;;;16.17;5.50;;;;;;;17.13;100.00;100403.69;5027060;28;20030;-80
2022/09/09 07:41:21;;;;;;;18.58;4.88;;;;;;;17.12;100.00;100403.84;4999790;28;20125;-80
2022/09/09 07:43:50;;;;;;;19.73;5.45;;;;;;;17.17;100.00;100402.31;5035309;28;20029;-80
2022/09/09 07:46:19;;;;;;;39.53;6.03;;;;;;;17.28;100.00;100401.06;5000537;28;20041;-79
2022/09/09 07:48:52;;;;;;;29.80;4.72;;;;;;;17.36;100.00;100401.03;5001107;28;20037;-80
2022/09/09 07:51:22;;;;;;;27.88;4.00;;;;;;;17.55;100.00;100410.84;5037813;28;20033;-80
2022/09/09 07:53:59;;;;;;;23.48;4.38;;;;;;;17.95;100.00;100411.75;5023304;28;20111;-80
2022/09/09 07:56:29;;;;;;;22.85;3.58;;;;;;;17.35;100.00;100406.75;5021486;28;20029;-79
2022/09/09 07:58:56;;;;;;;32.53;3.97;;;;;;;17.25;100.00;100398.69;5020153;28;20038;-80
2022/09/09 08:01:27;;;;;;;25.80;4.35;;;;;;;17.10;100.00;100406.81;5035752;28;20033;-78
2022/09/09 08:03:59;;;;;;;18.83;3.72;;;;;;;17.21;100.00;100408.34;5035711;28;20036;-79
2022/09/09 08:06:26;;;;;;;30.25;3.83;;;;;;;16.89;100.00;100411.00;5019635;28;20049;-79
2022/09/09 08:08:54;;;;;;;12.40;3.47;;;;;;;16.95;100.00;100412.19;5019613;28;20482;-79
2022/09/09 08:11:22;;;;;;;25.25;3.72;;;;;;;16.89;100.00;100416.53;5020231;28;20100;-79
2022/09/09 08:13:49;;;;;;;33.25;3.85;;;;;;;16.83;100.00;100410.78;5019423;28;20076;-79
2022/09/09 08:16:23;;;;;;;21.92;3.55;;;;;;;16.83;100.00;100419.09;5022928;28;20080;-80
2022/09/09 08:18:51;;;;;;;;;;;;;;;16.85;100.00;100409.59;5035077;28;20025;-80
2022/09/09 08:21:19;;;;;;;22.05;3.55;;;;;;;16.90;100.00;100414.59;5023030;28;19919;-80
2022/09/09 08:23:47;;;;;;;25.35;3.60;;;;;;;17.16;100.00;100424.63;5041230;28;20397;-79
2022/09/09 08:26:24;;;;;;;21.70;3.38;;;;;;;17.21;100.00;100427.72;5050268;28;20481;-79
2022/09/09 08:28:51;;;;;;;20.38;3.00;;;;;;;17.23;100.00;100422.88;5036107;28;20413;-80
2022/09/09 08:31:22;;;;;;;28.25;3.38;;;;;;;17.22;100.00;100432.22;5020110;28;20085;-79
2022/09/09 08:33:48;;;;;;;28.48;3.55;;;;;;;17.03;100.00;100422.38;5021182;28;20034;-79
2022/09/09 08:36:18;;;;;;;23.55;3.42;;;;;;;17.02;100.00;100420.66;5020138;28;20034;-80
2022/09/09 08:38:54;;;;;;;39.05;4.90;;;;;;;17.20;100.00;100428.75;5019504;28;20465;-80
2022/09/09 08:41:53;;;;;;;18.70;3.30;;;;;;;17.04;100.00;100430.50;5019406;28;20050;-80
2022/09/09 08:44:38;;;;;;;21.13;3.55;;;;;;;17.06;100.00;100431.19;5020279;28;20033;-80
2022/09/09 08:47:17;;;;;;;17.38;2.60;;;;;;;17.06;100.00;100430.34;5018331;28;20033;-80
2022/09/09 08:49:55;;;;;;;27.00;3.67;;;;;;;17.01;100.00;100421.69;5018809;28;20070;-80
2022/09/09 08:52:36;;;;;;;21.95;3.00;;;;;;;16.93;100.00;100433.63;5019823;28;20140;-79
2022/09/09 08:55:27;;;;;;;17.50;2.42;;;;;;;17.09;100.00;100435.53;5019924;28;20033;-80
2022/09/09 08:58:00;;;;;;;24.90;3.20;;;;;;;17.29;100.00;100430.47;5032571;28;20441;-79
2022/09/09 09:00:40;;;;;;;24.00;2.75;;;;;;;17.25;100.00;100435.50;5036962;28;20135;-79
2022/09/09 09:03:34;;;;;;;13.98;2.60;;;;;;;17.41;100.00;100433.72;5036345;28;20021;-79
2022/09/09 09:06:27;;;;;;;31.77;3.00;;;;;;;17.57;100.00;100433.69;5036212;28;20029;-78
2022/09/09 09:09:32;;;;;;;26.55;3.55;;;;;;;17.53;100.00;100437.88;5025829;28;20412;-78
2022/09/09 09:12:02;;;;;;;;;;;;;;;17.44;100.00;100441.69;5041063;28;20040;-79
2022/09/09 09:14:30;;;;;;;26.42;2.88;;;;;;;17.35;100.00;100439.97;5042624;28;19915;-80
2022/09/09 09:16:58;;;;;;;20.73;2.58;;;;;;;17.43;100.00;100439.94;5029880;28;20469;-79
2022/09/09 09:19:26;;;;;;;17.70;2.45;;;;;;;17.49;100.00;100442.00;5011404;28;20467;-80
2022/09/09 09:22:11;;;;;;;18.42;2.60;;;;;;;17.53;100.00;100445.28;5021310;28;20032;-79
2022/09/09 09:25:16;;;;;;;19.38;2.63;;;;;;;17.62;100.00;100455.31;5039337;28;20129;-80
2022/09/09 09:27:52;;;;;;;25.20;2.70;;;;;;;17.48;100.00;100454.13;5027055;28;20034;-80
2022/09/09 09:30:34;;;;;;;23.10;2.72;;;;;;;17.35;100.00;100449.16;5017829;28;20033;-80
2022/09/09 09:33:04;;;;;;;24.30;4.28;;;;;;;17.34;100.00;100452.09;5019077;28;20026;-79
2022/09/09 09:35:33;;;;;;;18.67;2.72;;;;;;;17.34;100.00;100447.41;5033439;28;20025;-80
2022/09/09 09:38:00;;;;;;;14.85;2.55;;;;;;;17.30;100.00;100442.41;5010748;28;20038;-80
2022/09/09 09:40:26;;;;;;;40.53;5.13;;;;;;;17.47;100.00;100441.31;5006856;28;20029;-80
2022/09/09 09:42:59;;;;;;;16.40;2.00;;;;;;;17.47;100.00;100448.78;5020137;28;20034;-80
2022/09/09 09:45:29;;;;;;;19.00;3.58;;;;;;;17.60;100.00;100447.16;5019910;28;20029;-80
2022/09/09 09:47:59;;;;;;;22.25;2.25;;;;;;;17.53;100.00;100450.81;5019815;28;20128;-80
2022/09/09 09:50:25;;;;;;;24.75;3.35;;;;;;;17.40;100.00;100443.94;5031390;28;20037;-80
2022/09/09 09:53:04;;;;;;;15.05;2.50;;;;;;;17.42;100.00;100450.16;5017538;28;20034;-80
2022/09/09 09:55:35;;;;;;;13.85;2.00;;;;;;;17.36;100.00;100436.16;5017134;28;20033;-81
2022/09/09 09:58:15;;;;;;;28.20;3.30;;;;;;;17.51;100.00;100447.38;5033142;28;20029;-80
2022/09/09 10:00:52;;;;;;;16.60;2.10;;;;;;;17.39;100.00;100442.19;5016678;28;20049;-79
2022/09/09 10:03:24;;;;;;;17.63;2.85;;;;;;;17.43;100.00;100448.25;5017851;28;20021;-79
2022/09/09 10:05:50;;;;;;;16.35;2.13;;;;;;;17.36;100.00;100434.25;5018285;28;20121;-79
2022/09/09 10:08:20;;;;;;;16.42;2.63;;;;;;;17.33;100.00;100455.88;5018981;28;20069;-80
2022/09/09 10:10:58;;;;;;;28.50;3.05;;;;;;;17.36;100.00;100441.69;5009693;28;20042;-80
2022/09/09 10:13:42;;;;;;;17.55;2.70;;;;;;;17.55;100.00;100451.53;5023901;28;20034;-79
2022/09/09 10:16:31;;;;;;;19.58;1.95;;;;;;;17.64;100.00;100451.31;5018206;28;20060;-80
2022/09/09 10:19:29;;;;;;;17.55;2.97;;;;;;;18.01;100.00;100454.50;5016145;28;20092;-79
2022/09/09 10:22:06;;;;;;;19.67;2.15;;;;;;;17.98;100.00;100454.84;5015892;28;20041;-80
2022/09/09 10:25:15;;;;;;;21.08;2.33;;;;;;;18.15;100.00;100452.84;5016297;28;20025;-80
2022/09/09 10:27:59;;;;;;;17.45;2.42;;;;;;;17.98;100.00;100447.41;5029921;28;20049;-80
2022/09/09 10:30:48;;;;;;;17.47;2.47;;;;;;;17.88;100.00;100457.00;5022709;28;20037;-79
2022/09/09 10:33:44;;;;;;;19.02;2.45;;;;;;;17.70;100.00;100443.34;5016372;28;20045;-79
2022/09/09 10:36:19;;;;;;;21.80;2.55;;;;;;;17.72;100.00;100457.88;5031028;28;20030;-79
2022/09/09 10:38:57;;;;;;;19.05;2.10;;;;;;;17.71;100.00;100454.25;5015790;28;20038;-79
2022/09/09 10:41:35;;;;;;;9.70;2.03;;;;;;;17.68;100.00;100453.75;5014570;28;20052;-79
2022/09/09 10:44:27;;;;;;;15.02;2.10;;;;;;;17.61;100.00;100453.56;5032145;28;20029;-78
2022/09/09 10:47:01;;;;;;;14.38;2.60;;;;;;;17.26;100.00;100451.03;5038025;28;20041;-79
2022/09/09 10:49:42;;;;;;;26.23;3.20;;;;;;;16.75;100.00;100442.06;5017051;28;20030;-80
2022/09/09 10:52:37;;;;;;;22.45;3.35;;;;;;;16.63;100.00;100437.91;5016683;28;20042;-80
2022/09/09 10:55:10;;;;;;;26.88;3.78;;;;;;;16.54;100.00;100442.56;5000607;28;20026;-81
2022/09/09 10:57:49;;;;;;;15.75;3.95;;;;;;;16.57;100.00;100455.19;5019939;28;20025;-81
2022/09/09 11:00:23;;;;;;;20.63;3.38;;;;;;;16.41;100.00;100434.75;5017927;28;20033;-82
2022/09/09 11:02:55;;;;;;;21.67;3.75;;;;;;;16.55;100.00;100447.06;5019974;28;20030;-82
2022/09/09 11:05:28;;;;;;;20.80;3.00;;;;;;;16.51;100.00;100434.59;5016798;28;20112;-82
2022/09/09 11:08:01;;;;;;;20.70;2.97;;;;;;;16.63;100.00;100446.22;5017542;28;20083;-82
2022/09/09 11:10:59;;;;;;;19.02;2.92;;;;;;;16.54;100.00;100434.25;5017325;28;20030;-81
2022/09/09 11:13:58;;;;;;;19.13;3.20;;;;;;;16.35;100.00;100443.75;5021453;28;20096;-82
2022/09/09 11:16:53;;;;;;;20.77;3.53;;;;;;;16.05;100.00;100454.34;5021552;28;20041;-81
2022/09/09 11:19:34;;;;;;;18.13;3.83;;;;;;;15.95;100.00;100453.63;5016673;28;20062;-80
2022/09/09 11:22:14;;;;;;;24.95;5.07;;;;;;;15.58;100.00;100455.69;5016132;28;20022;-80
2022/09/09 11:24:50;;;;;;;31.02;6.38;;;;;;;15.51;100.00;100446.34;5026484;28;20083;-80
2022/09/09 11:27:36;;;;;;;25.30;6.68;;;;;;;15.65;100.00;100442.06;5031148;28;20037;-80
2022/09/09 11:30:17;;;;;;;20.38;4.75;;;;;;;15.65;100.00;100435.69;5040123;28;20040;-81
2022/09/09 11:32:44;;;;;;;34.78;6.18;;;;;;;15.69;100.00;100437.09;5023585;28;20086;-80
2022/09/09 11:35:41;;;;;;;34.70;6.93;;;;;;;15.80;100.00;100454.25;5018457;28;20042;-81
2022/09/09 11:38:38;;;;;;;28.80;7.28;;;;;;;15.75;100.00;100444.72;5033053;28;20139;-80
2022/09/09 11:41:09;;;;;;;33.85;6.93;;;;;;;15.66;100.00;100446.59;5020028;28;20072;-80